Time;durP1;ratioP1;P1;durP2;ratioP2;P2;SDS_P1;SDS_P2;PMS_P1;PMS_P2;Temp;Humidity;BMP_temperature;BMP_pressure;BME280_temperature;BME280_humidity;BME280_pressure;Samples;Min_cycle;Max_cycle;Signal;HPM_P1;HPM_P2
2023/05/22 00:02:25;;;;;;;14.10;12.97;;;17.60;99.90;;;;;;4952665;28;20462;-68
2023/05/22 00:04:57;;;;;;;14.40;13.30;;;17.60;99.90;;;;;;4959207;28;20471;-68
2023/05/22 00:07:26;;;;;;;13.67;12.67;;;17.50;99.90;;;;;;4957107;28;20477;-68
2023/05/22 00:09:54;;;;;;;13.87;12.77;;;17.50;99.90;;;;;;4953544;28;20544;-68
2023/05/22 00:12:22;;;;;;;14.50;13.33;;;17.50;99.90;;;;;;4957320;28;20557;-68
2023/05/22 00:14:51;;;;;;;13.90;12.90;;;17.40;99.90;;;;;;4957004;28;21195;-68
2023/05/22 00:17:19;;;;;;;13.93;12.90;;;17.40;99.90;;;;;;4957215;28;20506;-68
2023/05/22 00:19:47;;;;;;;14.20;13.03;;;17.40;99.90;;;;;;4955815;28;20836;-68
2023/05/22 00:22:17;;;;;;;14.30;13.20;;;17.40;99.90;;;;;;4957859;28;21230;-69
2023/05/22 00:24:45;;;;;;;13.53;12.50;;;17.30;99.90;;;;;;4952784;28;20556;-68
2023/05/22 00:27:13;;;;;;;13.97;12.87;;;17.30;99.90;;;;;;4948587;28;20537;-68
2023/05/22 00:29:41;;;;;;;14.73;13.40;;;17.30;99.90;;;;;;4950019;28;21089;-68
2023/05/22 00:32:09;;;;;;;14.17;13.07;;;17.30;99.90;;;;;;4948375;28;20470;-68
2023/05/22 00:34:37;;;;;;;13.30;12.33;;;17.30;99.90;;;;;;4944315;28;21006;-69
2023/05/22 00:37:05;;;;;;;12.73;11.63;;;17.30;99.90;;;;;;4947196;28;21153;-68
2023/05/22 00:39:34;;;;;;;13.20;12.10;;;17.30;99.90;;;;;;4938292;28;20601;-68
2023/05/22 00:42:02;;;;;;;12.93;11.83;;;17.30;99.90;;;;;;4948084;28;21053;-68
2023/05/22 00:44:30;;;;;;;12.30;11.30;;;17.30;99.90;;;;;;4945018;28;20503;-68
2023/05/22 00:46:58;;;;;;;12.57;11.57;;;17.30;99.90;;;;;;4943295;28;20491;-68
2023/05/22 00:49:27;;;;;;;11.43;10.53;;;17.30;99.90;;;;;;4950668;28;20481;-68
2023/05/22 00:51:55;;;;;;;12.03;11.03;;;17.30;99.90;;;;;;4950171;28;20498;-68
2023/05/22 00:54:23;;;;;;;12.00;10.93;;;17.30;99.90;;;;;;4950910;28;20502;-68
2023/05/22 00:56:53;;;;;;;12.60;11.80;;;17.30;99.90;;;;;;4949497;28;21113;-68
2023/05/22 00:59:21;;;;;;;11.83;11.03;;;17.30;99.90;;;;;;4951524;28;20876;-68
2023/05/22 01:01:50;;;;;;;12.20;11.30;;;17.30;99.90;;;;;;4955377;28;21909;-68
2023/05/22 01:04:18;;;;;;;11.47;10.63;;;17.30;99.90;;;;;;4954258;28;20489;-68
2023/05/22 01:06:46;;;;;;;12.77;11.87;;;17.30;99.90;;;;;;4956991;28;20494;-68
2023/05/22 01:09:15;;;;;;;12.13;11.23;;;17.30;99.90;;;;;;4953459;28;20478;-68
2023/05/22 01:11:51;;;;;;;12.30;11.30;;;17.20;99.90;;;;;;4951986;28;20502;-68
2023/05/22 01:14:29;;;;;;;11.80;10.90;;;17.20;99.90;;;;;;4955849;28;20494;-68
2023/05/22 01:17:07;;;;;;;11.20;10.40;;;17.20;99.90;;;;;;4954883;28;20482;-68
2023/05/22 01:19:59;;;;;;;12.53;11.53;;;17.20;99.90;;;;;;4954731;28;20475;-68
2023/05/22 01:22:57;;;;;;;12.17;11.17;;;17.10;99.90;;;;;;4957354;28;20504;-69
2023/05/22 01:25:49;;;;;;;11.90;11.00;;;17.10;99.90;;;;;;4955843;28;20518;-68
2023/05/22 01:28:35;;;;;;;13.63;12.00;;;17.10;99.90;;;;;;4953695;28;22000;-68
2023/05/22 01:31:09;;;;;;;12.80;11.70;;;17.10;99.90;;;;;;4955870;28;20573;-68
2023/05/22 01:33:45;;;;;;;11.77;10.87;;;17.00;99.90;;;;;;4957351;28;20552;-68
2023/05/22 01:36:15;;;;;;;11.43;10.63;;;17.00;99.90;;;;;;4952854;28;20520;-68
2023/05/22 01:38:43;;;;;;;12.43;11.53;;;17.00;99.90;;;;;;4957284;28;20477;-68
2023/05/22 01:41:12;;;;;;;12.10;11.10;;;17.00;99.90;;;;;;4954562;28;21041;-68
2023/05/22 01:43:40;;;;;;;11.87;10.90;;;17.00;99.90;;;;;;4958287;28;20495;-68
2023/05/22 01:46:09;;;;;;;11.60;10.60;;;17.00;99.90;;;;;;4947195;28;21086;-68
2023/05/22 01:48:37;;;;;;;11.40;10.40;;;16.90;99.90;;;;;;4954061;28;22856;-68
2023/05/22 01:51:11;;;;;;;12.10;11.17;;;16.90;99.90;;;;;;4954811;28;21200;-68
2023/05/22 01:53:45;;;;;;;12.70;11.70;;;16.80;99.90;;;;;;4951308;28;21145;-68
2023/05/22 01:56:16;;;;;;;12.10;11.17;;;16.70;99.90;;;;;;4953306;28;20966;-68
2023/05/22 01:58:49;;;;;;;12.27;11.07;;;16.70;99.90;;;;;;4956881;28;20561;-68
2023/05/22 02:01:20;;;;;;;12.23;11.23;;;16.60;99.90;;;;;;4953320;28;20470;-68
2023/05/22 02:03:55;;;;;;;12.10;11.20;;;16.60;99.90;;;;;;4952639;28;20500;-68
2023/05/22 02:06:25;;;;;;;12.07;11.17;;;16.50;99.90;;;;;;4955998;28;21005;-68
2023/05/22 02:08:54;;;;;;;12.17;11.27;;;16.50;99.90;;;;;;4957223;28;20474;-68
2023/05/22 02:11:25;;;;;;;12.10;11.20;;;16.40;99.90;;;;;;4950015;28;21042;-68
2023/05/22 02:13:53;;;;;;;12.37;11.30;;;16.40;99.90;;;;;;4950716;28;20594;-68
2023/05/22 02:16:23;;;;;;;11.33;10.43;;;16.40;99.90;;;;;;4950474;28;20494;-68
2023/05/22 02:18:52;;;;;;;11.63;10.80;;;16.40;99.90;;;;;;4951895;28;20534;-68
2023/05/22 02:21:22;;;;;;;11.47;10.57;;;16.40;99.90;;;;;;4949252;28;20470;-68
2023/05/22 02:23:50;;;;;;;11.63;10.70;;;16.50;99.90;;;;;;4954035;28;20501;-68
2023/05/22 02:26:18;;;;;;;11.07;10.27;;;16.50;99.90;;;;;;4954478;28;20584;-68
2023/05/22 02:28:46;;;;;;;10.77;9.97;;;16.50;99.90;;;;;;4952724;28;21123;-68
2023/05/22 02:31:15;;;;;;;10.60;9.80;;;16.50;99.90;;;;;;4955565;28;20573;-68
2023/05/22 02:33:44;;;;;;;11.20;10.23;;;16.50;99.90;;;;;;4952588;28;20498;-68
2023/05/22 02:36:13;;;;;;;11.60;10.73;;;16.50;99.90;;;;;;4952450;28;20489;-68
2023/05/22 02:38:41;;;;;;;10.97;10.07;;;16.50;99.90;;;;;;4956243;28;20466;-68
2023/05/22 02:41:09;;;;;;;10.60;9.80;;;16.60;99.90;;;;;;4955223;28;20579;-68
2023/05/22 02:43:37;;;;;;;11.40;10.50;;;16.50;99.90;;;;;;4959846;28;20880;-68
2023/05/22 02:46:05;;;;;;;12.10;11.10;;;16.60;99.90;;;;;;4961507;28;20589;-68
2023/05/22 02:48:33;;;;;;;10.60;9.80;;;16.60;99.90;;;;;;4959498;28;20548;-68
2023/05/22 02:51:02;;;;;;;11.23;10.20;;;16.60;99.90;;;;;;4960940;28;20497;-67
2023/05/22 02:53:32;;;;;;;10.63;9.83;;;16.60;99.90;;;;;;4953750;28;20503;-67
2023/05/22 02:56:00;;;;;;;11.20;10.27;;;16.60;99.90;;;;;;4956973;28;20926;-67
2023/05/22 02:58:28;;;;;;;10.67;9.87;;;16.60;99.90;;;;;;4955359;28;20546;-67
2023/05/22 03:00:56;;;;;;;10.70;9.80;;;16.60;99.90;;;;;;4960133;28;20481;-67
2023/05/22 03:03:24;;;;;;;10.73;9.93;;;16.60;99.90;;;;;;4954250;28;20494;-67
2023/05/22 03:05:57;;;;;;;10.13;9.43;;;16.60;99.90;;;;;;4960140;28;20494;-67
2023/05/22 03:08:27;;;;;;;10.30;9.30;;;16.60;99.90;;;;;;4951507;28;20587;-67
2023/05/22 03:10:55;;;;;;;10.37;9.53;;;16.60;99.90;;;;;;4955894;28;20987;-67
2023/05/22 03:13:23;;;;;;;11.33;10.37;;;16.60;99.90;;;;;;4958359;28;20528;-67
2023/05/22 03:15:51;;;;;;;10.53;9.73;;;16.50;99.90;;;;;;4954329;28;20512;-67
2023/05/22 03:18:20;;;;;;;11.23;10.33;;;16.60;99.90;;;;;;4951915;28;20471;-67
2023/05/22 03:20:48;;;;;;;10.33;9.43;;;16.50;99.90;;;;;;4957667;28;20557;-67
2023/05/22 03:23:16;;;;;;;10.63;9.73;;;16.60;99.90;;;;;;4958575;28;20568;-70
2023/05/22 03:25:46;;;;;;;10.50;9.70;;;16.60;99.90;;;;;;4956873;28;20491;-70
2023/05/22 03:28:14;;;;;;;10.37;9.57;;;16.60;99.90;;;;;;4955365;28;20566;-67
2023/05/22 03:30:45;;;;;;;10.63;9.73;;;16.60;99.90;;;;;;4957611;28;20584;-67
2023/05/22 03:33:13;;;;;;;10.97;10.10;;;16.60;99.90;;;;;;4959775;28;20548;-67
2023/05/22 03:35:43;;;;;;;10.73;9.80;;;16.60;99.90;;;;;;4954227;28;20490;-67
2023/05/22 03:38:11;;;;;;;9.60;8.80;;;16.60;99.90;;;;;;4956520;28;20561;-67
2023/05/22 03:40:39;;;;;;;11.20;10.20;;;16.60;99.90;;;;;;4953729;28;20474;-69
2023/05/22 03:43:09;;;;;;;9.60;8.80;;;16.60;99.90;;;;;;4958082;28;20498;-69
2023/05/22 03:45:37;;;;;;;10.30;9.50;;;16.60;99.90;;;;;;4954490;28;20498;-69
2023/05/22 03:48:05;;;;;;;10.27;9.13;;;16.60;99.90;;;;;;4954963;28;20918;-69
2023/05/22 03:50:33;;;;;;;10.33;9.43;;;16.60;99.90;;;;;;4956294;28;20475;-69
2023/05/22 03:53:01;;;;;;;10.70;9.87;;;16.60;99.90;;;;;;4955074;28;20597;-69
2023/05/22 03:55:29;;;;;;;10.03;9.20;;;16.60;99.90;;;;;;4953899;28;20497;-69
2023/05/22 03:57:57;;;;;;;10.33;9.53;;;16.60;99.90;;;;;;4957259;28;20511;-69
2023/05/22 04:00:26;;;;;;;9.60;8.90;;;16.70;99.90;;;;;;4954332;28;20476;-69
2023/05/22 04:02:57;;;;;;;9.80;9.03;;;16.60;99.90;;;;;;4952742;28;21020;-69
2023/05/22 04:05:25;;;;;;;9.80;9.00;;;16.70;99.90;;;;;;4956568;28;20517;-69
2023/05/22 04:07:53;;;;;;;9.50;8.80;;;16.70;99.90;;;;;;4955360;28;20527;-69
2023/05/22 04:10:22;;;;;;;9.07;8.37;;;16.70;99.90;;;;;;4950113;28;20574;-67
2023/05/22 04:12:50;;;;;;;10.17;9.27;;;16.80;99.90;;;;;;4955360;28;20506;-67
2023/05/22 04:15:18;;;;;;;10.20;8.60;;;16.80;99.90;;;;;;4955921;28;20497;-67
2023/05/22 04:17:48;;;;;;;9.03;8.43;;;16.80;99.90;;;;;;4956530;28;20549;-68
2023/05/22 04:20:18;;;;;;;9.10;8.50;;;16.90;99.90;;;;;;4955248;28;20470;-67
2023/05/22 04:22:47;;;;;;;9.27;8.40;;;16.90;99.90;;;;;;4957442;28;20922;-67
2023/05/22 04:25:15;;;;;;;9.50;8.60;;;16.90;99.90;;;;;;4956979;28;20568;-67
2023/05/22 04:27:43;;;;;;;10.27;9.27;;;17.00;99.90;;;;;;4956802;28;20630;-67
2023/05/22 04:30:13;;;;;;;9.00;8.30;;;17.00;99.90;;;;;;4954221;28;20474;-67
2023/05/22 04:32:42;;;;;;;9.80;8.90;;;17.10;99.90;;;;;;4949847;28;20490;-67
2023/05/22 04:35:11;;;;;;;9.03;8.33;;;17.10;99.90;;;;;;4953125;28;20497;-67
2023/05/22 04:37:41;;;;;;;8.73;7.93;;;17.20;99.90;;;;;;4947806;28;20474;-67
2023/05/22 04:40:10;;;;;;;8.67;7.87;;;17.20;99.90;;;;;;4945018;28;20789;-67
2023/05/22 04:42:39;;;;;;;9.37;8.70;;;17.20;99.90;;;;;;4945270;28;20517;-67
2023/05/22 04:45:08;;;;;;;8.30;7.50;;;17.30;99.90;;;;;;4946559;28;20630;-67
2023/05/22 04:47:40;;;;;;;9.07;8.37;;;17.30;99.90;;;;;;4949236;28;20891;-67
2023/05/22 04:50:09;;;;;;;9.20;8.40;;;17.40;99.90;;;;;;4952347;28;20995;-67
2023/05/22 04:52:38;;;;;;;9.20;8.40;;;17.40;99.90;;;;;;4946329;28;20881;-67
2023/05/22 04:55:07;;;;;;;9.10;8.20;;;17.50;99.90;;;;;;4941858;28;20493;-67
2023/05/22 04:57:35;;;;;;;8.67;8.07;;;17.50;99.90;;;;;;4949293;28;21058;-67
2023/05/22 05:00:08;;;;;;;8.57;7.97;;;17.60;99.90;;;;;;4950287;28;20478;-67
2023/05/22 05:02:36;;;;;;;8.10;7.50;;;17.60;99.90;;;;;;4947032;28;20474;-67
2023/05/22 05:05:04;;;;;;;8.70;8.10;;;17.60;99.90;;;;;;4954049;28;20491;-67
2023/05/22 05:07:32;;;;;;;8.27;7.67;;;17.70;99.90;;;;;;4952701;28;20566;-64
2023/05/22 05:10:01;;;;;;;8.33;7.67;;;17.70;99.90;;;;;;4957071;28;21037;-64
2023/05/22 05:12:29;;;;;;;8.87;8.17;;;17.70;99.90;;;;;;4956434;28;20474;-64
2023/05/22 05:14:57;;;;;;;7.53;7.03;;;17.80;99.90;;;;;;4954771;28;20561;-64
2023/05/22 05:17:25;;;;;;;8.60;7.90;;;17.80;99.90;;;;;;4955593;28;21008;-63
2023/05/22 05:19:54;;;;;;;8.13;7.40;;;17.90;99.90;;;;;;4950395;28;20561;-62
2023/05/22 05:22:22;;;;;;;8.37;7.20;;;17.90;99.90;;;;;;4956404;28;20561;-63
2023/05/22 05:24:49;;;;;;;7.90;7.30;;;17.90;99.90;;;;;;4945124;28;20483;-65
2023/05/22 05:27:19;;;;;;;8.20;7.57;;;18.00;99.90;;;;;;4954113;28;20580;-63
2023/05/22 05:29:47;;;;;;;8.33;7.63;;;18.00;99.90;;;;;;4953493;28;20490;-68
2023/05/22 05:32:15;;;;;;;8.30;7.50;;;18.10;99.90;;;;;;4937242;28;20609;-68
2023/05/22 05:34:44;;;;;;;8.63;7.77;;;18.10;99.90;;;;;;4937333;28;21058;-68
2023/05/22 05:37:12;;;;;;;7.87;7.17;;;18.10;99.90;;;;;;4944759;28;20837;-69
2023/05/22 05:39:41;;;;;;;7.90;7.20;;;18.20;99.90;;;;;;4934056;28;20898;-68
2023/05/22 05:42:09;;;;;;;7.97;7.17;;;18.20;99.90;;;;;;4945229;28;20820;-68
2023/05/22 05:44:38;;;;;;;7.40;6.73;;;18.30;99.90;;;;;;4945666;28;20489;-68
2023/05/22 05:47:06;;;;;;;7.30;6.70;;;18.30;99.90;;;;;;4945958;28;20576;-68
2023/05/22 05:49:34;;;;;;;8.20;7.47;;;18.40;99.90;;;;;;4951413;28;21106;-68
2023/05/22 05:52:06;;;;;;;7.60;7.00;;;18.40;99.90;;;;;;4943683;28;20852;-68
2023/05/22 05:54:34;;;;;;;7.60;6.87;;;18.50;99.90;;;;;;4952060;28;20502;-68
2023/05/22 05:57:02;;;;;;;7.40;6.70;;;18.60;99.90;;;;;;4957649;28;20489;-68
2023/05/22 05:59:31;;;;;;;7.80;7.10;;;18.70;99.90;;;;;;4954203;28;20476;-68
2023/05/22 06:02:00;;;;;;;7.47;6.97;;;18.70;99.90;;;;;;4956711;28;20531;-68
2023/05/22 06:04:28;;;;;;;6.90;6.47;;;18.70;99.90;;;;;;4958249;28;20498;-68
2023/05/22 06:06:56;;;;;;;8.10;7.40;;;18.80;99.90;;;;;;4957352;28;20544;-68
2023/05/22 06:09:24;;;;;;;6.97;6.47;;;18.90;99.90;;;;;;4954867;28;20529;-68
2023/05/22 06:11:52;;;;;;;7.33;6.73;;;18.90;99.90;;;;;;4955932;28;20479;-68
2023/05/22 06:14:20;;;;;;;7.53;6.93;;;18.90;99.90;;;;;;4956627;28;20585;-68
2023/05/22 06:16:48;;;;;;;7.07;6.57;;;19.00;99.90;;;;;;4956138;28;20493;-68
2023/05/22 06:19:18;;;;;;;7.47;6.77;;;19.00;99.90;;;;;;4957135;28;20553;-68
2023/05/22 06:21:46;;;;;;;8.60;7.80;;;19.10;99.90;;;;;;4952950;28;20472;-68
2023/05/22 06:24:14;;;;;;;7.80;7.10;;;19.10;99.90;;;;;;4954562;28;20592;-68
2023/05/22 06:26:42;;;;;;;7.03;6.40;;;19.10;99.90;;;;;;4952228;28;21101;-68
2023/05/22 06:29:10;;;;;;;7.43;6.80;;;19.10;99.90;;;;;;4956837;28;21044;-68
2023/05/22 06:31:38;;;;;;;7.90;7.10;;;19.20;99.90;;;;;;4950591;28;21067;-68
2023/05/22 06:34:06;;;;;;;7.07;6.47;;;19.20;99.90;;;;;;4950484;28;20501;-68
2023/05/22 06:36:36;;;;;;;7.13;6.43;;;19.30;99.90;;;;;;4956983;28;20753;-68
2023/05/22 06:39:04;;;;;;;7.73;7.17;;;19.30;99.90;;;;;;4954645;28;21065;-68
2023/05/22 06:41:33;;;;;;;6.47;5.97;;;19.40;99.90;;;;;;4954393;28;20466;-68
2023/05/22 06:44:01;;;;;;;7.10;6.50;;;19.40;99.90;;;;;;4956677;28;21023;-68
2023/05/22 06:46:29;;;;;;;7.43;6.70;;;19.50;99.90;;;;;;4956759;28;20494;-68
2023/05/22 06:48:57;;;;;;;7.13;6.63;;;19.50;99.90;;;;;;4959204;28;20865;-68
2023/05/22 06:51:25;;;;;;;7.17;6.60;;;19.50;99.90;;;;;;4961564;28;20481;-68
2023/05/22 06:53:55;;;;;;;7.57;6.87;;;19.60;99.90;;;;;;4958008;28;20529;-68
2023/05/22 06:56:23;;;;;;;6.73;6.23;;;19.60;99.90;;;;;;4957598;28;20514;-68
2023/05/22 06:58:51;;;;;;;7.03;6.53;;;19.70;99.90;;;;;;4958764;28;21070;-68
2023/05/22 07:01:19;;;;;;;6.67;6.10;;;19.70;99.90;;;;;;4959336;28;21208;-68
2023/05/22 07:03:47;;;;;;;6.50;6.00;;;19.80;99.90;;;;;;4959217;28;20592;-68
2023/05/22 07:06:16;;;;;;;6.70;6.10;;;19.80;99.90;;;;;;4959922;28;20651;-68
2023/05/22 07:08:45;;;;;;;7.10;6.50;;;19.90;99.90;;;;;;4960440;28;20484;-67
2023/05/22 07:11:14;;;;;;;6.73;6.20;;;19.90;99.90;;;;;;4961310;28;20557;-67
2023/05/22 07:13:42;;;;;;;7.43;6.73;;;20.00;99.90;;;;;;4961039;28;21118;-68
2023/05/22 07:16:10;;;;;;;6.73;6.23;;;20.10;99.90;;;;;;4957369;28;20583;-67
2023/05/22 07:18:39;;;;;;;6.30;5.80;;;20.20;99.90;;;;;;4962746;28;20503;-68
2023/05/22 07:21:07;;;;;;;7.07;6.57;;;20.30;99.90;;;;;;4960102;28;20475;-68
2023/05/22 07:23:35;;;;;;;7.30;6.40;;;20.40;99.90;;;;;;4960360;28;20927;-68
2023/05/22 07:26:03;;;;;;;7.43;6.83;;;20.50;99.90;;;;;;4962033;28;21015;-68
2023/05/22 07:28:32;;;;;;;6.37;5.97;;;20.60;99.90;;;;;;4959154;28;20505;-68
2023/05/22 07:31:00;;;;;;;6.40;5.90;;;20.70;99.90;;;;;;4960163;28;20552;-68
2023/05/22 07:33:28;;;;;;;6.63;6.10;;;20.90;99.90;;;;;;4960954;28;20914;-68
2023/05/22 07:35:56;;;;;;;6.27;5.77;;;21.00;99.90;;;;;;4961207;28;20481;-68
2023/05/22 07:38:26;;;;;;;6.90;6.30;;;21.10;99.90;;;;;;4961042;28;20502;-68
2023/05/22 07:40:54;;;;;;;6.83;6.07;;;21.20;99.90;;;;;;4961136;28;20553;-67
2023/05/22 07:43:23;;;;;;;6.33;5.80;;;21.30;99.90;;;;;;4960201;28;20505;-68
2023/05/22 07:45:52;;;;;;;5.53;5.03;;;21.50;99.90;;;;;;4961327;28;20484;-68
2023/05/22 07:48:21;;;;;;;6.40;5.90;;;21.60;99.90;;;;;;4961646;28;20919;-68
2023/05/22 07:50:49;;;;;;;6.10;5.50;;;21.70;99.90;;;;;;4961294;28;20586;-68
2023/05/22 07:53:17;;;;;;;6.00;5.47;;;21.90;99.90;;;;;;4959871;28;20504;-68
2023/05/22 07:55:46;;;;;;;6.07;5.57;;;22.00;99.90;;;;;;4958642;28;20537;-68
2023/05/22 07:58:14;;;;;;;7.00;5.53;;;22.10;99.90;;;;;;4954820;28;20973;-68
2023/05/22 08:00:42;;;;;;;6.30;5.23;;;22.20;99.90;;;;;;4959797;28;20659;-68
2023/05/22 08:03:12;;;;;;;6.10;5.50;;;22.30;99.90;;;;;;4959005;28;20570;-68
2023/05/22 08:05:40;;;;;;;7.80;5.97;;;22.40;99.90;;;;;;4958285;28;20499;-68
2023/05/22 08:08:09;;;;;;;5.73;5.33;;;22.50;99.90;;;;;;4959252;28;20911;-67
2023/05/22 08:10:39;;;;;;;7.10;4.83;;;22.70;99.90;;;;;;4959302;28;20494;-68
2023/05/22 08:13:11;;;;;;;5.40;5.00;;;22.80;99.90;;;;;;4957824;28;21023;-68
2023/05/22 08:15:39;;;;;;;14.07;6.03;;;22.90;99.90;;;;;;4959758;28;20483;-67
2023/05/22 08:18:07;;;;;;;5.23;4.90;;;23.00;99.90;;;;;;4959678;28;20552;-68
2023/05/22 08:20:37;;;;;;;5.93;5.00;;;23.00;99.90;;;;;;4957532;28;20507;-68
2023/05/22 08:23:05;;;;;;;5.50;5.00;;;23.10;99.90;;;;;;4957304;28;20495;-68
2023/05/22 08:25:33;;;;;;;6.57;5.43;;;23.20;99.90;;;;;;4958420;28;20938;-68
2023/05/22 08:28:01;;;;;;;5.80;5.03;;;23.20;99.90;;;;;;4958230;28;20593;-68
2023/05/22 08:30:29;;;;;;;5.67;5.20;;;23.30;99.90;;;;;;4956649;28;20529;-68
2023/05/22 08:32:57;;;;;;;4.93;4.53;;;23.30;99.90;;;;;;4956713;28;20549;-68
2023/05/22 08:35:26;;;;;;;5.03;4.73;;;23.30;99.90;;;;;;4955729;28;20489;-68
2023/05/22 08:37:55;;;;;;;6.83;5.10;;;23.30;99.90;;;;;;4954839;28;20564;-68
2023/05/22 08:40:28;;;;;;;5.40;4.90;;;23.30;99.90;;;;;;4959848;28;20562;-68
2023/05/22 08:42:56;;;;;;;5.63;5.10;;;23.40;99.90;;;;;;4956334;28;20581;-68
2023/05/22 08:45:25;;;;;;;7.20;4.90;;;23.40;99.90;;;;;;4958283;28;20490;-68
2023/05/22 08:47:57;;;;;;;5.10;4.70;;;23.50;99.90;;;;;;4958215;28;21104;-68
2023/05/22 08:50:26;;;;;;;4.97;4.57;;;23.60;99.90;;;;;;4955728;28;21034;-68
2023/05/22 08:52:57;;;;;;;5.13;4.73;;;23.80;99.90;;;;;;4957170;28;20503;-69
2023/05/22 08:55:25;;;;;;;5.43;5.00;;;23.90;99.90;;;;;;4959613;28;20564;-68
2023/05/22 08:57:56;;;;;;;8.10;5.47;;;24.00;99.90;;;;;;4955208;28;20555;-68
2023/05/22 09:00:24;;;;;;;4.83;4.53;;;24.10;99.90;;;;;;4955782;28;20505;-69
2023/05/22 09:02:54;;;;;;;5.00;4.40;;;24.30;99.90;;;;;;4956449;28;20589;-68
2023/05/22 09:05:25;;;;;;;4.67;4.27;;;24.40;99.90;;;;;;4958939;28;20614;-69
2023/05/22 09:07:54;;;;;;;4.97;4.57;;;24.60;99.90;;;;;;4958143;28;20467;-69
2023/05/22 09:10:28;;;;;;;5.53;5.03;;;24.60;96.10;;;;;;4958995;28;20597;-69
2023/05/22 09:13:06;;;;;;;6.10;5.50;;;24.60;96.30;;;;;;4957632;28;20494;-68
2023/05/22 09:15:35;;;;;;;7.20;5.20;;;24.70;99.90;;;;;;4960574;28;20467;-69
2023/05/22 09:18:04;;;;;;;5.27;4.60;;;24.80;98.60;;;;;;4958616;28;20474;-69
2023/05/22 09:20:35;;;;;;;5.00;4.50;;;24.90;96.50;;;;;;4957159;28;20975;-69
2023/05/22 09:23:11;;;;;;;6.33;4.67;;;24.90;97.60;;;;;;4957405;28;20577;-69
2023/05/22 09:25:42;;;;;;;5.80;5.30;;;25.10;95.90;;;;;;4959252;28;20921;-69
2023/05/22 09:28:11;;;;;;;6.87;4.67;;;25.20;95.20;;;;;;4959720;28;20486;-69
2023/05/22 09:30:40;;;;;;;5.00;4.40;;;25.20;93.00;;;;;;4954616;28;21060;-69
2023/05/22 09:33:12;;;;;;;4.73;4.33;;;25.20;92.10;;;;;;4952746;28;21057;-68
2023/05/22 09:35:42;;;;;;;5.20;4.70;;;25.30;92.90;;;;;;4957101;28;20493;-69
2023/05/22 09:38:11;;;;;;;5.30;4.87;;;25.40;93.30;;;;;;4960014;28;20474;-69
2023/05/22 09:40:41;;;;;;;5.77;5.10;;;25.40;94.90;;;;;;4959939;28;20466;-69
2023/05/22 09:43:09;;;;;;;5.00;4.67;;;25.40;90.90;;;;;;4955885;28;20485;-69
2023/05/22 09:45:38;;;;;;;5.33;4.83;;;25.50;92.90;;;;;;4956388;28;20570;-69
2023/05/22 09:48:08;;;;;;;4.93;4.50;;;25.50;90.70;;;;;;4957459;28;20556;-68
2023/05/22 09:50:36;;;;;;;5.50;4.17;;;25.70;84.30;;;;;;4955129;28;21020;-68
2023/05/22 09:53:05;;;;;;;6.10;4.50;;;25.80;85.50;;;;;;4955386;28;20497;-68
2023/05/22 09:55:34;;;;;;;4.90;4.50;;;25.80;87.40;;;;;;4949581;28;20593;-69
2023/05/22 09:58:07;;;;;;;5.03;4.53;;;25.90;84.90;;;;;;4956060;28;20509;-68
2023/05/22 10:00:36;;;;;;;4.90;4.60;;;25.90;83.00;;;;;;4954730;28;20506;-68
2023/05/22 10:03:10;;;;;;;6.43;4.60;;;26.00;75.50;;;;;;4949670;28;20490;-68
2023/05/22 10:05:44;;;;;;;4.73;4.33;;;26.00;77.20;;;;;;4957652;28;20560;-68
2023/05/22 10:08:17;;;;;;;4.83;4.47;;;26.00;75.80;;;;;;4957570;28;20473;-69
2023/05/22 10:10:50;;;;;;;7.57;4.70;;;26.00;68.80;;;;;;4951059;28;20521;-69
2023/05/22 10:13:20;;;;;;;5.10;4.70;;;25.90;76.90;;;;;;4948316;28;20486;-69
2023/05/22 10:15:52;;;;;;;5.17;4.77;;;25.90;70.90;;;;;;4954066;28;20553;-69
2023/05/22 10:18:20;;;;;;;4.97;4.03;;;25.90;78.10;;;;;;4956160;28;21501;-70
2023/05/22 10:20:49;;;;;;;5.33;4.83;;;26.00;85.60;;;;;;4955325;28;20844;-69
2023/05/22 10:23:17;;;;;;;5.10;4.70;;;26.20;84.30;;;;;;4955545;28;20633;-69
2023/05/22 10:25:46;;;;;;;5.23;4.60;;;26.30;84.20;;;;;;4952587;28;20589;-69
2023/05/22 10:28:21;;;;;;;5.27;4.70;;;26.40;87.60;;;;;;4945371;28;20524;-68
2023/05/22 10:30:56;;;;;;;5.90;5.40;;;26.50;82.40;;;;;;4943194;28;20629;-69
2023/05/22 10:33:29;;;;;;;4.70;4.40;;;26.60;82.90;;;;;;4950055;28;21119;-68
2023/05/22 10:36:01;;;;;;;5.27;4.80;;;26.70;86.20;;;;;;4948226;28;20490;-68
2023/05/22 10:38:50;;;;;;;4.93;4.63;;;26.90;83.70;;;;;;4955639;28;20479;-70
2023/05/22 10:41:18;;;;;;;5.00;4.53;;;27.10;70.50;;;;;;4952700;28;20470;-69
2023/05/22 10:43:49;;;;;;;4.93;4.53;;;27.20;69.80;;;;;;4952880;28;20508;-69
2023/05/22 10:46:19;;;;;;;5.40;5.00;;;27.30;76.30;;;;;;4956974;28;20627;-69
2023/05/22 10:48:48;;;;;;;5.67;4.30;;;27.50;70.80;;;;;;4955703;28;21489;-69
2023/05/22 10:51:20;;;;;;;5.50;5.10;;;27.50;67.60;;;;;;4955421;28;21189;-69
2023/05/22 10:53:52;;;;;;;5.20;4.80;;;27.60;70.80;;;;;;4957904;28;20501;-68
2023/05/22 10:56:21;;;;;;;4.90;4.40;;;27.70;71.40;;;;;;4953525;28;20491;-69
2023/05/22 10:59:01;;;;;;;5.30;4.80;;;27.70;62.90;;;;;;4955766;28;20865;-68
2023/05/22 11:01:33;;;;;;;5.20;4.80;;;27.70;62.20;;;;;;4956096;28;20525;-69
2023/05/22 11:04:10;;;;;;;4.87;4.37;;;27.60;66.90;;;;;;4951894;28;20576;-68
2023/05/22 11:06:40;;;;;;;5.80;5.10;;;27.70;66.20;;;;;;4957824;28;20486;-69
2023/05/22 11:09:29;;;;;;;4.83;4.43;;;27.60;68.70;;;;;;4950777;28;20569;-68
2023/05/22 11:12:18;;;;;;;5.10;4.60;;;27.60;69.00;;;;;;4953113;28;20561;-68
2023/05/22 11:14:51;;;;;;;5.33;4.87;;;27.60;64.30;;;;;;4956954;28;20470;-69
2023/05/22 11:17:26;;;;;;;5.20;4.90;;;27.60;56.30;;;;;;4955963;28;20478;-68
2023/05/22 11:20:03;;;;;;;4.80;4.50;;;27.50;56.60;;;;;;4941822;28;20691;-69
2023/05/22 11:22:34;;;;;;;5.20;4.83;;;27.50;57.10;;;;;;4949859;28;20505;-68
2023/05/22 11:25:05;;;;;;;5.20;4.80;;;27.50;56.70;;;;;;4945711;28;20499;-68
2023/05/22 11:27:38;;;;;;;5.00;4.60;;;27.50;60.10;;;;;;4949519;28;20478;-69
2023/05/22 11:30:08;;;;;;;5.03;4.60;;;27.50;57.70;;;;;;4954831;28;20470;-69
2023/05/22 11:32:38;;;;;;;6.20;5.60;;;27.60;58.90;;;;;;4957622;28;20509;-68
2023/05/22 11:35:08;;;;;;;6.07;5.10;;;27.60;57.70;;;;;;4954036;28;20494;-68
2023/05/22 11:37:38;;;;;;;5.20;4.80;;;27.70;56.90;;;;;;4953252;28;21291;-68
2023/05/22 11:40:08;;;;;;;5.30;4.80;;;27.80;56.20;;;;;;4948623;28;20483;-68
2023/05/22 11:42:36;;;;;;;5.30;4.90;;;27.70;60.70;;;;;;4949620;28;20471;-67
2023/05/22 11:45:05;;;;;;;7.73;5.30;;;27.70;66.20;;;;;;4954181;28;20482;-68
2023/05/22 11:47:34;;;;;;;4.97;4.67;;;27.80;58.90;;;;;;4945148;28;21059;-67
2023/05/22 11:50:05;;;;;;;5.23;4.83;;;27.80;55.90;;;;;;4951076;28;20500;-67
2023/05/22 11:52:35;;;;;;;4.77;4.40;;;27.80;56.90;;;;;;4953749;28;20598;-67
2023/05/22 11:55:05;;;;;;;5.50;5.10;;;27.90;65.10;;;;;;4950997;28;21113;-67
2023/05/22 11:57:33;;;;;;;6.43;4.50;;;27.90;55.70;;;;;;4959671;28;20888;-67
2023/05/22 12:00:05;;;;;;;4.67;4.37;;;27.90;56.60;;;;;;4955623;28;20557;-67
2023/05/22 12:02:34;;;;;;;5.13;4.70;;;27.80;58.90;;;;;;4960195;28;20502;-68
2023/05/22 12:05:04;;;;;;;5.40;5.00;;;27.80;59.20;;;;;;4955051;28;20509;-68
2023/05/22 12:07:33;;;;;;;4.93;4.53;;;27.90;55.60;;;;;;4956881;28;20474;-67
2023/05/22 12:10:02;;;;;;;5.53;4.37;;;28.00;54.80;;;;;;4956583;28;20562;-67
2023/05/22 12:12:30;;;;;;;4.80;4.50;;;28.10;54.30;;;;;;4951655;28;20669;-68
2023/05/22 12:14:58;;;;;;;5.23;4.87;;;28.10;52.80;;;;;;4946733;28;20485;-68
2023/05/22 12:17:28;;;;;;;5.03;4.70;;;28.20;51.80;;;;;;4954302;28;20488;-68
2023/05/22 12:19:57;;;;;;;4.70;4.40;;;28.20;54.70;;;;;;4955433;28;20619;-68
2023/05/22 12:22:28;;;;;;;4.83;4.53;;;28.30;53.70;;;;;;4948757;28;20475;-68
2023/05/22 12:24:56;;;;;;;4.80;4.40;;;28.40;55.70;;;;;;4953534;28;21081;-68
2023/05/22 12:27:24;;;;;;;5.20;4.80;;;28.50;55.50;;;;;;4952843;28;20481;-67
2023/05/22 12:29:56;;;;;;;7.00;4.73;;;28.60;53.80;;;;;;4946893;28;20474;-67
2023/05/22 12:32:25;;;;;;;5.37;4.97;;;28.70;53.30;;;;;;4943378;28;20529;-68
2023/05/22 12:34:58;;;;;;;5.13;4.73;;;28.90;53.90;;;;;;4940641;28;21015;-68
2023/05/22 12:37:28;;;;;;;4.83;4.53;;;29.00;51.00;;;;;;4943685;28;20484;-68
2023/05/22 12:39:57;;;;;;;5.40;4.90;;;29.10;50.50;;;;;;4945412;28;20478;-68
2023/05/22 12:42:28;;;;;;;4.97;4.50;;;29.20;52.00;;;;;;4950398;28;20506;-68
2023/05/22 12:44:59;;;;;;;4.93;4.53;;;29.30;51.10;;;;;;4944885;28;20568;-68
2023/05/22 12:47:27;;;;;;;4.90;4.60;;;29.50;50.50;;;;;;4950566;28;20486;-68
2023/05/22 12:49:55;;;;;;;5.10;4.70;;;29.60;48.10;;;;;;4953459;28;20481;-68
2023/05/22 12:52:23;;;;;;;4.80;4.50;;;29.70;44.90;;;;;;4953557;28;20497;-67
2023/05/22 12:54:52;;;;;;;4.83;4.43;;;29.70;43.40;;;;;;4954165;28;21046;-69